createdAt,value
2023-02-25T00:46:59.020Z,58.30
2023-02-25T00:49:32.348Z,58.20
2023-02-25T00:52:01.537Z,58.30
2023-02-25T00:54:30.064Z,58.20
2023-02-25T00:56:58.357Z,58.30
2023-02-25T00:59:26.763Z,58.30
2023-02-25T01:45:55.651Z,57.70
2023-02-25T01:48:29.190Z,58.30
2023-02-25T01:51:04.090Z,57.90
2023-02-25T01:53:39.737Z,58.10
2023-02-25T01:56:10.752Z,58.10
2023-02-25T01:58:40.254Z,58.10
2023-02-25T02:45:58.187Z,57.60
2023-02-25T02:48:35.810Z,57.70
2023-02-25T02:51:10.351Z,57.80
2023-02-25T02:53:45.332Z,57.80
2023-02-25T02:56:17.103Z,57.70
2023-02-25T02:58:49.378Z,57.60
2023-02-25T03:48:11.935Z,57.90
2023-02-25T03:50:46.010Z,57.20
2023-02-25T03:53:15.566Z,57.10
2023-02-25T03:55:57.953Z,57.10
2023-02-25T03:58:26.452Z,57.00
2023-02-25T04:48:24.138Z,56.70
2023-02-25T04:50:52.782Z,56.60
2023-02-25T04:53:21.537Z,56.60
2023-02-25T04:55:50.033Z,56.60
2023-02-25T04:58:18.438Z,56.50
2023-02-25T05:46:31.649Z,56.40
2023-02-25T05:49:00.055Z,56.30
2023-02-25T05:51:28.724Z,56.30
2023-02-25T05:53:58.173Z,56.30
2023-02-25T05:56:30.209Z,56.30
2023-02-25T05:59:00.602Z,56.30
2023-02-25T06:01:31.579Z,56.20
2023-02-25T06:04:01.142Z,56.20
2023-02-25T06:06:31.963Z,56.50
2023-02-25T06:09:00.796Z,57.10
2023-02-25T06:11:31.297Z,57.10
2023-02-25T06:14:00.678Z,56.90
2023-02-25T06:16:31.955Z,56.60
2023-02-25T06:19:02.105Z,56.10
2023-02-25T06:21:31.306Z,55.70
2023-02-25T06:23:59.947Z,55.50
2023-02-25T06:26:28.784Z,55.40
2023-02-25T06:28:57.702Z,55.40
2023-02-25T06:31:26.418Z,55.50
2023-02-25T06:33:56.256Z,55.60
2023-02-25T06:36:25.013Z,56.20
2023-02-25T06:38:53.712Z,55.50
2023-02-25T06:41:24.404Z,56.00
2023-02-25T06:43:53.598Z,55.40
2023-02-25T06:46:24.790Z,55.50
2023-02-25T06:48:55.632Z,55.40
2023-02-25T06:51:25.778Z,55.40
2023-02-25T06:53:54.166Z,55.40
2023-02-25T06:56:23.287Z,55.40
2023-02-25T06:58:52.519Z,55.40
2023-02-25T07:01:21.086Z,55.40
2023-02-25T07:03:49.642Z,55.50
2023-02-25T07:06:20.165Z,55.50
2023-02-25T07:08:48.650Z,55.50
2023-02-25T07:11:30.135Z,55.50
2023-02-25T07:13:58.901Z,55.50
2023-02-25T07:16:29.862Z,55.50
2023-02-25T07:19:02.153Z,55.50
2023-02-25T07:21:33.622Z,55.50
2023-02-25T07:24:01.872Z,55.50
2023-02-25T07:26:30.243Z,55.50
2023-02-25T07:29:00.053Z,55.50
2023-02-25T07:31:29.770Z,55.50
2023-02-25T07:34:03.191Z,55.60
2023-02-25T07:36:35.165Z,55.50
2023-02-25T07:39:04.458Z,55.80
2023-02-25T07:41:32.997Z,56.50
2023-02-25T07:44:05.280Z,57.10
2023-02-25T07:46:34.060Z,57.30
2023-02-25T07:49:02.679Z,57.30
2023-02-25T07:51:32.372Z,59.70
2023-02-25T07:54:01.158Z,59.00
2023-02-25T07:56:31.034Z,59.30
2023-02-25T07:58:59.408Z,59.00
2023-02-25T08:01:29.967Z,58.90
2023-02-25T08:04:00.591Z,59.10
2023-02-25T08:06:29.498Z,58.40
2023-02-25T08:08:59.211Z,58.70
2023-02-25T08:11:28.324Z,58.20
2023-02-25T08:13:56.609Z,59.00
2023-02-25T08:16:24.777Z,59.10
2023-02-25T08:18:54.310Z,58.60
2023-02-25T08:21:24.637Z,58.40
2023-02-25T08:23:54.291Z,58.30
2023-02-25T08:26:27.100Z,58.40
2023-02-25T08:28:57.079Z,58.20
2023-02-25T08:31:25.926Z,58.20
2023-02-25T08:33:54.942Z,58.20
2023-02-25T08:36:26.707Z,58.00
2023-02-25T08:38:58.300Z,57.40
2023-02-25T08:41:30.119Z,56.80
2023-02-25T08:44:01.181Z,56.10
2023-02-25T08:46:32.514Z,55.60
2023-02-25T08:49:02.061Z,55.10
2023-02-25T08:51:34.961Z,55.00
2023-02-25T08:54:06.547Z,55.00
2023-02-25T08:56:37.189Z,55.20
2023-02-25T08:59:06.495Z,55.20
2023-02-25T09:01:45.590Z,55.40
2023-02-25T09:04:15.729Z,55.50
2023-02-25T09:06:47.173Z,55.50
2023-02-25T09:09:16.083Z,55.50
2023-02-25T09:11:46.833Z,55.60
2023-02-25T09:14:15.765Z,55.60
2023-02-25T09:16:44.314Z,55.60
2023-02-25T09:19:15.593Z,55.70
2023-02-25T09:21:44.737Z,55.80
2023-02-25T09:24:13.251Z,55.90
2023-02-25T09:26:42.067Z,55.90
2023-02-25T09:29:12.038Z,56.00
2023-02-25T09:31:40.497Z,56.00
2023-02-25T09:34:13.845Z,56.00
2023-02-25T09:36:43.299Z,56.10
2023-02-25T09:39:11.642Z,56.10
2023-02-25T09:41:49.912Z,56.10
2023-02-25T09:44:23.561Z,56.00
2023-02-25T09:46:57.112Z,56.00
2023-02-25T09:49:30.552Z,56.00
2023-02-25T09:52:05.748Z,56.00
2023-02-25T09:54:39.483Z,56.10
2023-02-25T09:57:11.669Z,56.00
2023-02-25T09:59:41.394Z,55.90
2023-02-25T10:02:28.545Z,55.90
2023-02-25T10:05:21.904Z,56.10
2023-02-25T10:08:02.208Z,56.00
2023-02-25T10:10:40.200Z,56.00
2023-02-25T10:13:26.451Z,56.00
2023-02-25T10:16:09.799Z,56.10
2023-02-25T10:19:03.699Z,56.10
2023-02-25T10:21:48.516Z,56.30
2023-02-25T10:24:30.190Z,56.30
2023-02-25T10:27:05.134Z,56.40
2023-02-25T10:29:41.968Z,56.40
2023-02-25T10:32:21.703Z,56.50
2023-02-25T10:34:53.258Z,56.50
2023-02-25T10:37:27.203Z,56.50
2023-02-25T10:39:59.714Z,56.50
2023-02-25T10:42:29.035Z,56.50
2023-02-25T10:45:09.276Z,56.50
2023-02-25T10:47:42.378Z,56.50
2023-02-25T10:50:19.621Z,56.50
2023-02-25T10:53:02.051Z,56.30
2023-02-25T10:55:51.594Z,56.30
2023-02-25T10:58:36.023Z,56.10
2023-02-25T11:01:18.850Z,56.00
2023-02-25T11:03:58.911Z,56.10
2023-02-25T11:06:30.210Z,56.90
2023-02-25T11:09:01.398Z,57.80
2023-02-25T11:11:32.423Z,61.10
2023-02-25T11:14:05.271Z,58.90
2023-02-25T11:16:37.181Z,58.30
2023-02-25T11:19:18.044Z,59.20
2023-02-25T11:21:47.174Z,58.70
2023-02-25T11:24:19.981Z,58.90
2023-02-25T11:26:52.243Z,58.90
2023-02-25T11:29:25.179Z,58.90
2023-02-25T11:31:57.754Z,58.90
2023-02-25T11:34:31.968Z,58.80
2023-02-25T11:37:26.187Z,58.80
2023-02-25T11:39:56.670Z,58.80
2023-02-25T11:42:28.135Z,58.60
2023-02-25T11:45:01.713Z,58.50
2023-02-25T11:47:33.395Z,58.40
2023-02-25T11:50:24.940Z,58.40
2023-02-25T11:53:05.726Z,58.10
2023-02-25T11:56:00.355Z,58.00
2023-02-25T11:58:47.592Z,57.70
2023-02-25T12:01:25.870Z,57.40
2023-02-25T12:04:26.975Z,57.20
2023-02-25T12:07:29.685Z,57.20
2023-02-25T12:10:39.412Z,57.20
2023-02-25T12:13:54.285Z,57.10
2023-02-25T12:17:31.159Z,57.10
2023-02-25T12:20:50.071Z,57.20
2023-02-25T12:23:57.546Z,57.30
2023-02-25T12:26:40.348Z,57.40
2023-02-25T12:29:34.638Z,57.50
2023-02-25T12:32:28.502Z,57.50
2023-02-25T12:35:49.166Z,57.50
2023-02-25T12:39:17.319Z,57.60
2023-02-25T12:41:50.569Z,57.60
2023-02-25T12:44:51.197Z,58.00
2023-02-25T12:47:31.410Z,57.80
2023-02-25T12:50:32.522Z,57.80
2023-02-25T12:53:37.560Z,57.80
2023-02-25T12:56:47.030Z,57.90
2023-02-25T12:59:46.719Z,57.80
2023-02-25T13:02:50.896Z,57.20
2023-02-25T13:06:05.263Z,55.90
2023-02-25T13:09:01.216Z,55.60
2023-02-25T13:12:10.114Z,55.40
2023-02-25T13:14:50.810Z,55.40
2023-02-25T13:17:56.157Z,55.30
2023-02-25T13:21:09.783Z,55.30
2023-02-25T13:24:00.470Z,55.30
2023-02-25T13:27:04.083Z,55.30
2023-02-25T13:29:57.110Z,55.20
2023-02-25T13:32:37.364Z,55.30
2023-02-25T13:35:32.060Z,55.20
2023-02-25T13:38:18.977Z,55.10
2023-02-25T13:41:11.234Z,55.00
2023-02-25T13:44:22.669Z,55.50
2023-02-25T13:47:36.333Z,55.60
2023-02-25T13:50:47.786Z,55.80
2023-02-25T13:53:57.006Z,55.80
2023-02-25T13:56:56.464Z,55.80
2023-02-25T13:59:51.786Z,55.90
2023-02-25T14:02:47.269Z,56.00
2023-02-25T14:05:59.285Z,56.30
2023-02-25T14:09:18.193Z,56.40
2023-02-25T14:12:11.539Z,56.50
2023-02-25T14:15:29.325Z,56.50
2023-02-25T14:18:44.217Z,56.60
2023-02-25T14:21:51.642Z,56.60
2023-02-25T14:24:30.591Z,56.80
2023-02-25T14:27:16.593Z,56.80
2023-02-25T14:30:12.711Z,56.70
2023-02-25T14:33:14.179Z,56.40
2023-02-25T14:36:00.255Z,56.30
2023-02-25T14:38:42.913Z,56.20
2023-02-25T14:41:28.593Z,56.20
2023-02-25T14:44:02.760Z,56.10
2023-02-25T14:46:40.230Z,55.80
2023-02-25T14:49:16.529Z,55.80
2023-02-25T14:52:15.397Z,55.70
2023-02-25T14:55:26.020Z,55.70
2023-02-25T14:58:47.177Z,55.60
2023-02-25T15:01:55.379Z,55.60
2023-02-25T15:05:09.343Z,55.50
2023-02-25T15:08:06.568Z,55.40
2023-02-25T15:10:48.336Z,55.40
2023-02-25T15:13:49.572Z,55.40
2023-02-25T15:17:01.112Z,55.40
2023-02-25T15:19:56.600Z,55.30
2023-02-25T15:22:27.318Z,55.30
2023-02-25T15:25:30.594Z,55.30
2023-02-25T15:28:02.346Z,55.40
2023-02-25T15:31:28.352Z,55.40
2023-02-25T15:34:34.962Z,55.60
2023-02-25T15:37:36.383Z,55.80
2023-02-25T15:40:47.195Z,55.80
2023-02-25T15:43:44.891Z,56.10
2023-02-25T15:46:41.855Z,56.10
2023-02-25T15:49:33.525Z,56.40
2023-02-25T15:52:04.721Z,56.90
2023-02-25T15:54:51.764Z,56.40
2023-02-25T15:57:41.839Z,56.40
2023-02-25T16:00:51.908Z,57.80
2023-02-25T16:03:43.423Z,57.30
2023-02-25T16:06:17.594Z,57.00
2023-02-25T16:08:53.605Z,56.70
2023-02-25T16:11:35.397Z,56.80
2023-02-25T16:14:08.813Z,56.80
2023-02-25T16:16:45.164Z,56.90
2023-02-25T16:19:17.173Z,57.10
2023-02-25T16:21:50.288Z,57.40
2023-02-25T16:24:20.334Z,57.60
2023-02-25T16:27:00.079Z,57.40
2023-02-25T16:29:52.817Z,57.60
2023-02-25T16:32:34.331Z,57.30
2023-02-25T16:35:10.687Z,57.00
2023-02-25T16:37:51.301Z,57.00
2023-02-25T16:40:28.807Z,56.70
2023-02-25T16:42:59.869Z,56.90
2023-02-25T16:45:32.907Z,56.60
2023-02-25T16:48:06.860Z,56.70
2023-02-25T16:50:37.142Z,56.70
2023-02-25T16:53:06.927Z,56.80
2023-02-25T16:55:41.583Z,56.80
2023-02-25T16:58:24.309Z,56.80
2023-02-25T17:00:55.110Z,56.80
2023-02-25T17:03:25.513Z,56.90
2023-02-25T17:06:07.344Z,56.90
2023-02-25T17:08:38.451Z,56.90
2023-02-25T17:11:07.638Z,56.80
2023-02-25T17:13:41.333Z,56.50
2023-02-25T17:16:23.307Z,56.30
2023-02-25T17:18:56.333Z,56.10
2023-02-25T17:21:29.245Z,56.20
2023-02-25T17:24:00.744Z,56.30
2023-02-25T17:26:30.334Z,56.10
2023-02-25T17:29:01.955Z,56.10
2023-02-25T17:31:31.674Z,56.10
2023-02-25T17:34:03.428Z,56.10
2023-02-25T17:36:35.864Z,56.10
2023-02-25T17:39:09.385Z,56.00
2023-02-25T17:41:37.946Z,56.10
2023-02-25T17:44:06.417Z,56.30
2023-02-25T17:46:38.247Z,56.20
2023-02-25T17:49:21.283Z,56.50
2023-02-25T17:51:55.482Z,56.20
2023-02-25T17:54:27.349Z,56.40
2023-02-25T17:57:00.560Z,56.60
2023-02-25T17:59:38.669Z,56.70
2023-02-25T18:02:32.500Z,57.30
2023-02-25T18:05:27.146Z,57.80
2023-02-25T18:08:17.712Z,57.30
2023-02-25T18:10:55.893Z,57.40
2023-02-25T18:13:35.245Z,57.20
2023-02-25T18:16:38.838Z,57.10
2023-02-25T18:19:25.395Z,56.00
2023-02-25T18:21:54.316Z,56.90
2023-02-25T18:24:33.102Z,56.10
2023-02-25T18:27:26.869Z,55.80
2023-02-25T18:29:58.015Z,55.90
2023-02-25T18:32:27.434Z,56.10
2023-02-25T18:34:55.769Z,55.80
2023-02-25T18:37:24.236Z,56.00
2023-02-25T18:39:52.741Z,56.30
2023-02-25T18:42:22.443Z,56.50
2023-02-25T18:44:50.789Z,56.70
2023-02-25T18:47:19.120Z,57.00
2023-02-25T18:49:47.749Z,57.10
2023-02-25T18:52:23.396Z,57.20
2023-02-25T18:54:52.042Z,57.40
2023-02-25T18:57:25.725Z,57.60
2023-02-25T18:59:54.625Z,58.10
2023-02-25T19:02:29.977Z,57.10
2023-02-25T19:04:59.093Z,57.00
2023-02-25T19:07:30.972Z,57.30
2023-02-25T19:09:59.546Z,57.30
2023-02-25T19:12:30.586Z,57.20
2023-02-25T19:15:02.111Z,57.00
2023-02-25T19:17:30.856Z,57.00
2023-02-25T19:19:59.243Z,56.90
2023-02-25T19:22:27.813Z,56.80
2023-02-25T19:24:56.148Z,56.80
2023-02-25T19:27:28.767Z,56.80
2023-02-25T19:30:00.146Z,56.70
2023-02-25T19:32:28.625Z,56.70
2023-02-25T19:34:56.902Z,56.70
2023-02-25T19:37:27.750Z,56.70
2023-02-25T19:39:56.046Z,56.70
2023-02-25T19:42:24.400Z,56.60
2023-02-25T19:44:54.137Z,56.70
2023-02-25T19:47:22.449Z,56.70
2023-02-25T19:49:50.750Z,56.60
2023-02-25T19:52:19.152Z,56.70
2023-02-25T19:54:47.486Z,56.60
2023-02-25T19:57:15.927Z,56.60
2023-02-25T19:59:44.326Z,56.60
2023-02-25T20:02:15.208Z,56.50
2023-02-25T20:04:43.926Z,56.60
2023-02-25T20:07:12.654Z,56.50
2023-02-25T20:09:41.016Z,56.10
2023-02-25T20:12:09.705Z,56.30
2023-02-25T20:14:38.909Z,55.90
2023-02-25T20:17:07.226Z,53.20
2023-02-25T20:19:36.990Z,54.40
2023-02-25T20:22:06.864Z,53.60
2023-02-25T20:24:36.172Z,53.70
2023-02-25T20:27:04.544Z,53.60
2023-02-25T20:29:33.038Z,53.80
2023-02-25T20:32:02.798Z,53.90
2023-02-25T20:34:31.859Z,54.50
2023-02-25T20:37:07.323Z,54.10
2023-02-25T20:39:52.220Z,54.20
2023-02-25T20:42:23.845Z,54.50
2023-02-25T20:44:53.929Z,54.70
2023-02-25T20:47:24.936Z,54.40
2023-02-25T20:49:54.490Z,54.30
2023-02-25T20:52:26.772Z,54.10
2023-02-25T20:54:55.562Z,54.10
2023-02-25T20:57:26.588Z,54.10
2023-02-25T20:59:55.555Z,54.10
2023-02-25T21:02:24.293Z,54.10
2023-02-25T21:04:52.653Z,54.20
2023-02-25T21:07:20.980Z,54.20
2023-02-25T21:09:50.598Z,54.20
2023-02-25T21:12:19.078Z,53.80
2023-02-25T21:14:47.468Z,54.00
2023-02-25T21:17:15.746Z,53.90
2023-02-25T21:19:44.080Z,53.80
2023-02-25T21:22:12.399Z,53.90
2023-02-25T21:24:40.676Z,54.00
2023-02-25T21:27:10.360Z,53.90
2023-02-25T21:29:38.678Z,53.80
2023-02-25T21:32:07.075Z,53.70
2023-02-25T21:34:37.163Z,53.60
2023-02-25T21:37:05.459Z,53.50
2023-02-25T21:39:34.028Z,53.50
2023-02-25T21:42:02.395Z,53.40
2023-02-25T21:44:32.212Z,53.30
2023-02-25T21:47:00.610Z,52.80
2023-02-25T21:49:31.506Z,52.40
2023-02-25T21:52:00.144Z,52.50
2023-02-25T21:54:28.759Z,52.20
2023-02-25T21:56:57.172Z,52.20
2023-02-25T21:59:26.044Z,52.30
2023-02-25T22:01:56.028Z,52.40
2023-02-25T22:04:24.470Z,52.50
2023-02-25T22:06:52.901Z,52.80
2023-02-25T22:09:21.302Z,52.70
2023-02-25T22:11:49.658Z,52.80
2023-02-25T22:14:17.937Z,52.80
2023-02-25T22:16:46.273Z,52.90
2023-02-25T22:19:15.881Z,53.10
2023-02-25T22:21:44.186Z,53.10
2023-02-25T22:24:12.580Z,53.20
2023-02-25T22:26:41.036Z,53.20
2023-02-25T22:29:10.496Z,53.10
2023-02-25T22:31:38.975Z,53.30
2023-02-25T22:34:08.142Z,53.20
2023-02-25T22:36:37.830Z,53.10
2023-02-25T22:39:07.877Z,53.10
2023-02-25T22:41:36.849Z,53.20
2023-02-25T22:44:06.838Z,53.10
2023-02-25T22:46:38.071Z,53.20
2023-02-25T22:49:08.047Z,53.20
2023-02-25T22:51:54.489Z,53.30
2023-02-25T22:54:22.820Z,53.30
2023-02-25T22:57:12.892Z,53.30
2023-02-25T22:59:41.357Z,53.40
2023-02-25T23:02:09.790Z,53.40
2023-02-25T23:04:38.103Z,53.40
2023-02-25T23:07:07.813Z,53.40
2023-02-25T23:09:36.294Z,53.40
2023-02-25T23:12:05.732Z,53.40
2023-02-25T23:14:35.746Z,53.40
2023-02-25T23:17:04.520Z,53.40
2023-02-25T23:19:32.905Z,53.40
2023-02-25T23:22:01.314Z,53.30
2023-02-25T23:24:31.228Z,53.40
2023-02-25T23:26:59.586Z,53.50
2023-02-25T23:29:28.090Z,53.40
2023-02-25T23:31:56.545Z,53.40
2023-02-25T23:34:25.881Z,53.50
2023-02-25T23:36:57.476Z,53.50
2023-02-25T23:39:26.433Z,53.70
2023-02-25T23:41:56.130Z,53.50
2023-02-25T23:44:24.705Z,53.50
2023-02-25T23:46:53.189Z,53.50
2023-02-25T23:49:21.565Z,53.40
2023-02-25T23:51:50.125Z,53.50
2023-02-25T23:54:21.683Z,53.50
2023-02-25T23:56:51.036Z,53.60
2023-02-25T23:59:23.693Z,53.60
